Time;durP1;ratioP1;P1;durP2;ratioP2;P2;SDS_P1;SDS_P2;PMS_P1;PMS_P2;Temp;Humidity;BMP_temperature;BMP_pressure;BME280_temperature;BME280_humidity;BME280_pressure;Samples;Min_cycle;Max_cycle;Signal;HPM_P1;HPM_P2
2022/07/25 00:00:03;;;;;;;4.40;3.55;;;;;;;;;;4993108;28;20062;-67
2022/07/25 00:02:29;;;;;;;3.05;2.78;;;;;;;;;;4993051;28;20050;-67
2022/07/25 00:04:55;;;;;;;3.45;3.03;;;;;;;;;;4974902;28;20117;-67
2022/07/25 00:07:21;;;;;;;5.05;3.03;;;;;;;;;;4974905;28;20046;-67
2022/07/25 00:09:47;;;;;;;3.53;2.83;;;;;;;;;;4992708;28;20038;-67
2022/07/25 00:12:13;;;;;;;3.15;2.88;;;;;;;;;;4992338;28;20042;-67
2022/07/25 00:14:39;;;;;;;4.57;3.00;;;;;;;;;;4992458;28;20137;-67
2022/07/25 00:17:05;;;;;;;4.35;3.33;;;;;;;;;;4992506;28;20069;-67
2022/07/25 00:19:31;;;;;;;4.22;3.28;;;;;;;;;;4992101;28;20473;-67
2022/07/25 00:21:57;;;;;;;5.32;3.42;;;;;;;;;;4992140;28;20039;-67
2022/07/25 00:24:23;;;;;;;4.80;3.28;;;;;;;;;;4992468;28;20043;-67
2022/07/25 00:26:49;;;;;;;3.70;3.40;;;;;;;;;;4992234;28;20366;-67
2022/07/25 00:29:15;;;;;;;4.75;3.60;;;;;;;;;;4992518;28;20046;-67
2022/07/25 00:31:41;;;;;;;6.03;4.05;;;;;;;;;;4992483;28;20065;-67
2022/07/25 00:34:07;;;;;;;4.97;3.75;;;;;;;;;;4992047;28;20104;-67
2022/07/25 00:36:33;;;;;;;4.55;4.10;;;;;;;;;;4991634;28;20121;-67
2022/07/25 00:38:59;;;;;;;5.28;4.53;;;;;;;;;;4992524;28;20045;-67
2022/07/25 00:41:25;;;;;;;5.45;4.68;;;;;;;;;;4991903;28;20428;-67
2022/07/25 00:43:51;;;;;;;6.00;4.32;;;;;;;;;;4991466;28;20122;-67
2022/07/25 00:46:18;;;;;;;5.50;4.60;;;;;;;;;;4992017;28;20163;-67
2022/07/25 00:48:44;;;;;;;6.60;4.90;;;;;;;;;;4992056;28;20408;-67
2022/07/25 00:51:10;;;;;;;5.55;4.88;;;;;;;;;;4991865;28;20050;-67
2022/07/25 00:53:37;;;;;;;5.95;5.35;;;;;;;;;;4974467;28;20057;-67
2022/07/25 00:56:04;;;;;;;6.63;5.20;;;;;;;;;;4991904;28;20457;-67
2022/07/25 00:58:30;;;;;;;5.63;4.75;;;;;;;;;;4991651;28;20042;-67
2022/07/25 01:00:56;;;;;;;6.97;5.13;;;;;;;;;;4991947;28;20046;-67
2022/07/25 01:03:22;;;;;;;5.38;4.70;;;;;;;;;;4992088;28;20121;-67
2022/07/25 01:05:49;;;;;;;5.95;5.25;;;;;;;;;;4990830;28;20130;-67
2022/07/25 01:08:16;;;;;;;6.32;5.43;;;;;;;;;;4991727;28;20497;-67
2022/07/25 01:10:42;;;;;;;7.47;5.22;;;;;;;;;;4991701;28;20682;-67
2022/07/25 01:13:08;;;;;;;6.10;5.47;;;;;;;;;;4990929;28;20097;-67
2022/07/25 01:15:34;;;;;;;5.95;5.45;;;;;;;;;;4991581;28;20043;-67
2022/07/25 01:18:00;;;;;;;7.50;5.55;;;;;;;;;;4991461;28;20042;-67
2022/07/25 01:20:27;;;;;;;5.60;4.90;;;;;;;;;;4990884;28;20133;-67
2022/07/25 01:22:53;;;;;;;7.55;5.95;;;;;;;;;;4991483;28;20049;-67
2022/07/25 01:25:20;;;;;;;7.00;6.28;;;;;;;;;;4991516;28;20066;-67
2022/07/25 01:27:46;;;;;;;8.18;6.07;;;;;;;;;;4991048;28;20045;-67
2022/07/25 01:30:14;;;;;;;7.63;5.80;;;;;;;;;;4991468;28;20535;-67
2022/07/25 01:32:40;;;;;;;7.45;6.05;;;;;;;;;;4991490;28;20100;-67
2022/07/25 01:35:07;;;;;;;7.30;6.28;;;;;;;;;;4973159;28;20042;-67
2022/07/25 01:37:33;;;;;;;8.10;6.45;;;;;;;;;;4991037;28;20451;-67
2022/07/25 01:39:59;;;;;;;7.13;6.20;;;;;;;;;;4991144;28;20042;-67
2022/07/25 01:42:26;;;;;;;7.18;6.45;;;;;;;;;;4990609;28;20042;-67
2022/07/25 01:44:52;;;;;;;8.23;6.93;;;;;;;;;;4973758;28;20121;-67
2022/07/25 01:47:18;;;;;;;11.73;6.85;;;;;;;;;;4990682;28;20133;-67
2022/07/25 01:49:44;;;;;;;8.15;7.00;;;;;;;;;;4990714;28;20053;-67
2022/07/25 01:52:11;;;;;;;9.90;7.10;;;;;;;;;;4991304;28;20046;-67
2022/07/25 01:54:37;;;;;;;8.02;6.93;;;;;;;;;;4990698;28;20038;-67
2022/07/25 01:57:04;;;;;;;9.32;7.55;;;;;;;;;;4990151;28;20042;-67
2022/07/25 01:59:30;;;;;;;9.32;7.65;;;;;;;;;;4990960;28;20053;-67
2022/07/25 02:01:56;;;;;;;8.77;7.88;;;;;;;;;;4990499;28;20034;-67
2022/07/25 02:04:22;;;;;;;10.82;7.38;;;;;;;;;;4990419;28;20049;-67
2022/07/25 02:06:48;;;;;;;8.77;7.32;;;;;;;;;;4990509;28;20109;-67
2022/07/25 02:09:14;;;;;;;9.60;7.35;;;;;;;;;;4990965;28;20393;-67
2022/07/25 02:11:40;;;;;;;8.73;7.72;;;;;;;;;;4990504;28;20038;-67
2022/07/25 02:14:07;;;;;;;8.77;7.78;;;;;;;;;;4990783;28;20053;-67
2022/07/25 02:16:33;;;;;;;9.40;7.65;;;;;;;;;;4990713;28;20042;-67
2022/07/25 02:18:59;;;;;;;8.45;7.55;;;;;;;;;;4992555;28;20044;-67
2022/07/25 02:21:25;;;;;;;11.10;8.50;;;;;;;;;;4994448;28;20125;-67
2022/07/25 02:23:51;;;;;;;11.02;8.13;;;;;;;;;;4994714;28;20486;-67
2022/07/25 02:26:17;;;;;;;11.80;8.82;;;;;;;;;;4994070;28;20035;-67
2022/07/25 02:28:43;;;;;;;10.75;8.35;;;;;;;;;;4994725;28;20448;-67
2022/07/25 02:31:09;;;;;;;9.05;8.13;;;;;;;;;;4994799;28;20093;-67
2022/07/25 02:33:35;;;;;;;15.38;8.98;;;;;;;;;;4993741;28;20054;-67
2022/07/25 02:36:01;;;;;;;9.25;8.07;;;;;;;;;;4994191;28;20043;-67
2022/07/25 02:38:27;;;;;;;13.13;8.65;;;;;;;;;;4994536;28;20086;-67
2022/07/25 02:40:53;;;;;;;10.90;9.02;;;;;;;;;;4993885;28;20433;-67
2022/07/25 02:43:19;;;;;;;12.73;9.10;;;;;;;;;;4993963;28;20096;-67
2022/07/25 02:45:46;;;;;;;8.95;8.05;;;;;;;;;;4994181;28;20049;-67
2022/07/25 02:48:12;;;;;;;9.90;8.55;;;;;;;;;;4993428;28;20047;-67
2022/07/25 02:50:38;;;;;;;11.27;8.38;;;;;;;;;;4976422;28;20074;-67
2022/07/25 02:53:04;;;;;;;11.27;8.90;;;;;;;;;;4994165;28;20084;-67
2022/07/25 02:55:30;;;;;;;13.00;9.25;;;;;;;;;;4976438;28;20046;-67
2022/07/25 02:57:56;;;;;;;10.38;8.68;;;;;;;;;;4993862;28;20081;-67
2022/07/25 03:00:22;;;;;;;11.18;9.63;;;;;;;;;;4993857;28;20073;-67
2022/07/25 03:02:49;;;;;;;9.75;8.75;;;;;;;;;;4993468;28;20042;-67
2022/07/25 03:05:15;;;;;;;11.00;8.90;;;;;;;;;;4994119;28;20101;-67
2022/07/25 03:07:42;;;;;;;12.82;9.95;;;;;;;;;;4976596;28;20046;-67
2022/07/25 03:10:09;;;;;;;12.13;9.07;;;;;;;;;;4993351;28;20050;-67
2022/07/25 03:12:35;;;;;;;11.77;9.63;;;;;;;;;;4993850;28;20174;-67
2022/07/25 03:15:02;;;;;;;10.63;9.02;;;;;;;;;;4993826;28;20082;-67
2022/07/25 03:17:28;;;;;;;13.00;10.60;;;;;;;;;;4993288;28;20042;-67
2022/07/25 03:19:54;;;;;;;11.05;8.77;;;;;;;;;;4993856;28;20788;-67
2022/07/25 03:22:21;;;;;;;13.25;10.07;;;;;;;;;;4993989;28;20043;-67
2022/07/25 03:24:47;;;;;;;11.85;9.75;;;;;;;;;;4975848;28;20046;-67
2022/07/25 03:27:13;;;;;;;11.07;9.98;;;;;;;;;;4975946;28;20038;-67
2022/07/25 03:29:40;;;;;;;12.70;10.80;;;;;;;;;;4975783;28;20047;-67
2022/07/25 03:32:06;;;;;;;11.77;10.38;;;;;;;;;;4992949;28;20386;-67
2022/07/25 03:34:33;;;;;;;13.10;9.43;;;;;;;;;;4993415;28;20042;-67
2022/07/25 03:36:59;;;;;;;11.40;8.85;;;;;;;;;;4993223;28;20054;-67
2022/07/25 03:39:26;;;;;;;11.20;9.30;;;;;;;;;;4993028;28;20038;-67
2022/07/25 03:41:52;;;;;;;11.10;9.15;;;;;;;;;;4993047;28;20517;-67
2022/07/25 03:44:18;;;;;;;14.40;10.38;;;;;;;;;;4975604;28;20082;-67
2022/07/25 03:46:45;;;;;;;14.65;9.05;;;;;;;;;;4992410;28;20065;-67
2022/07/25 03:49:11;;;;;;;12.13;9.40;;;;;;;;;;4993186;28;20093;-67
2022/07/25 03:51:37;;;;;;;11.02;9.10;;;;;;;;;;4992864;28;20100;-67
2022/07/25 03:54:04;;;;;;;14.77;9.32;;;;;;;;;;4992763;28;20054;-67
2022/07/25 03:56:38;;;;;;;14.18;8.85;;;;;;;;;;4993037;28;20085;-67
2022/07/25 03:59:05;;;;;;;13.65;9.02;;;;;;;;;;4975811;28;20050;-67
2022/07/25 04:01:31;;;;;;;17.63;10.23;;;;;;;;;;4975211;28;20101;-67
2022/07/25 04:03:57;;;;;;;11.75;9.07;;;;;;;;;;4992788;28;20116;-67
2022/07/25 04:06:23;;;;;;;11.38;9.77;;;;;;;;;;4992467;28;20038;-67
2022/07/25 04:08:50;;;;;;;12.48;9.85;;;;;;;;;;4992700;28;20089;-67
2022/07/25 04:11:16;;;;;;;11.73;10.23;;;;;;;;;;4992890;28;20034;-67
2022/07/25 04:13:42;;;;;;;14.23;10.50;;;;;;;;;;4992841;28;20056;-67
2022/07/25 04:16:09;;;;;;;12.05;9.63;;;;;;;;;;4992302;28;20791;-67
2022/07/25 04:18:35;;;;;;;15.40;10.35;;;;;;;;;;4992501;28;20452;-67
2022/07/25 04:21:02;;;;;;;13.50;10.68;;;;;;;;;;4992494;28;20054;-67
2022/07/25 04:23:28;;;;;;;14.10;10.85;;;;;;;;;;4992497;28;20050;-67
2022/07/25 04:25:54;;;;;;;14.88;10.77;;;;;;;;;;4991983;28;20040;-67
2022/07/25 04:28:20;;;;;;;11.95;10.25;;;;;;;;;;4992484;28;20046;-67
2022/07/25 04:30:46;;;;;;;14.57;11.52;;;;;;;;;;4992661;28;20357;-67
2022/07/25 04:33:13;;;;;;;12.27;10.55;;;;;;;;;;4991903;28;20130;-67
2022/07/25 04:35:39;;;;;;;12.32;10.73;;;;;;;;;;4992391;28;20042;-67
2022/07/25 04:38:05;;;;;;;13.82;10.43;;;;;;;;;;4992070;28;20134;-67
2022/07/25 04:40:31;;;;;;;12.20;10.70;;;;;;;;;;4992904;28;20050;-67
2022/07/25 04:42:57;;;;;;;14.95;11.35;;;;;;;;;;4993142;28;20043;-67
2022/07/25 04:45:23;;;;;;;13.23;10.73;;;;;;;;;;4993411;28;20042;-67
2022/07/25 04:47:49;;;;;;;16.40;12.15;;;;;;;;;;4992568;28;20389;-67
2022/07/25 04:50:16;;;;;;;15.60;12.73;;;;;;;;;;4993376;28;20045;-67
2022/07/25 04:52:43;;;;;;;14.57;10.93;;;;;;;;;;4993282;28;20393;-67
2022/07/25 04:55:09;;;;;;;15.50;10.90;;;;;;;;;;4992882;28;20047;-67
2022/07/25 04:57:35;;;;;;;15.63;12.35;;;;;;;;;;4992251;28;20132;-67
2022/07/25 05:00:02;;;;;;;13.85;10.88;;;;;;;;;;4993001;28;20089;-67
2022/07/25 05:02:27;;;;;;;14.43;11.65;;;;;;;;;;4992618;28;20038;-67
2022/07/25 05:04:54;;;;;;;14.52;11.98;;;;;;;;;;4993040;28;20377;-67
2022/07/25 05:07:20;;;;;;;14.23;11.27;;;;;;;;;;4993037;28;20039;-67
2022/07/25 05:09:46;;;;;;;16.92;11.75;;;;;;;;;;4992582;28;20042;-67
2022/07/25 05:12:12;;;;;;;14.88;12.95;;;;;;;;;;4975546;28;20038;-67
2022/07/25 05:14:38;;;;;;;15.90;12.60;;;;;;;;;;4992949;28;20479;-67
2022/07/25 05:17:04;;;;;;;18.90;12.73;;;;;;;;;;4992179;28;20133;-67
2022/07/25 05:19:30;;;;;;;19.38;13.75;;;;;;;;;;4992543;28;20097;-67
2022/07/25 05:21:56;;;;;;;16.77;12.73;;;;;;;;;;4992818;28;20058;-67
2022/07/25 05:24:22;;;;;;;18.65;13.05;;;;;;;;;;4992485;28;20038;-67
2022/07/25 05:26:49;;;;;;;19.45;14.90;;;;;;;;;;4992477;28;20057;-67
2022/07/25 05:29:15;;;;;;;14.98;12.75;;;;;;;;;;4992846;28;20489;-67
2022/07/25 05:31:42;;;;;;;16.58;12.60;;;;;;;;;;4992248;28;20481;-67
2022/07/25 05:34:08;;;;;;;17.70;12.73;;;;;;;;;;4992595;28;20045;-67
2022/07/25 05:36:34;;;;;;;18.33;13.23;;;;;;;;;;4992131;28;20038;-67
2022/07/25 05:39:00;;;;;;;16.63;11.95;;;;;;;;;;4992123;28;20046;-67
2022/07/25 05:41:26;;;;;;;17.48;13.55;;;;;;;;;;4974758;28;20066;-67
2022/07/25 05:43:53;;;;;;;19.30;13.15;;;;;;;;;;4992347;28;20381;-67
2022/07/25 05:46:18;;;;;;;16.02;12.85;;;;;;;;;;5002584;28;20373;-67
2022/07/25 05:48:45;;;;;;;18.90;13.45;;;;;;;;;;5004189;28;20089;-67
2022/07/25 05:51:11;;;;;;;18.27;13.27;;;;;;;;;;4991650;28;20091;-66
2022/07/25 05:53:37;;;;;;;17.83;11.98;;;;;;;;;;4990160;28;20045;-66
2022/07/25 05:56:04;;;;;;;16.38;11.90;;;;;;;;;;4991702;28;20108;-65
2022/07/25 05:58:30;;;;;;;15.68;11.70;;;;;;;;;;4991778;28;20088;-65
2022/07/25 06:00:57;;;;;;;15.43;10.88;;;;;;;;;;4991350;28;20061;-66
2022/07/25 06:03:23;;;;;;;14.35;10.88;;;;;;;;;;4992028;28;20046;-65
2022/07/25 06:05:49;;;;;;;15.55;11.68;;;;;;;;;;4992168;28;20039;-65
2022/07/25 06:08:15;;;;;;;15.18;10.68;;;;;;;;;;4991515;28;20043;-66
2022/07/25 06:10:41;;;;;;;13.57;10.88;;;;;;;;;;4991192;28;20077;-65
2022/07/25 06:13:07;;;;;;;13.88;10.18;;;;;;;;;;4991955;28;20121;-65
2022/07/25 06:15:34;;;;;;;12.50;10.25;;;;;;;;;;4991528;28;20038;-66
2022/07/25 06:18:00;;;;;;;13.90;10.38;;;;;;;;;;4991794;28;20081;-66
2022/07/25 06:20:26;;;;;;;15.75;11.77;;;;;;;;;;4991885;28;20051;-64
2022/07/25 06:22:52;;;;;;;14.82;10.52;;;;;;;;;;4991191;28;20121;-64
2022/07/25 06:25:18;;;;;;;16.05;10.40;;;;;;;;;;4991821;28;20052;-65
2022/07/25 06:27:44;;;;;;;13.23;10.77;;;;;;;;;;4991554;28;20101;-65
2022/07/25 06:30:14;;;;;;;12.07;9.40;;;;;;;;;;4991246;28;20125;-65
2022/07/25 06:32:40;;;;;;;12.93;9.65;;;;;;;;;;4991723;28;20038;-65
2022/07/25 06:35:06;;;;;;;12.75;9.65;;;;;;;;;;4991444;28;20366;-64
2022/07/25 06:37:32;;;;;;;12.50;9.90;;;;;;;;;;4991182;28;20401;-66
2022/07/25 06:40:00;;;;;;;12.48;9.65;;;;;;;;;;4991252;28;20053;-64
2022/07/25 06:42:26;;;;;;;15.15;9.43;;;;;;;;;;4980414;28;20055;-64
2022/07/25 06:44:52;;;;;;;11.52;8.98;;;;;;;;;;4990967;28;20501;-64
2022/07/25 06:47:18;;;;;;;10.85;8.75;;;;;;;;;;4999519;28;20069;-64
2022/07/25 06:49:44;;;;;;;18.88;9.45;;;;;;;;;;5011274;28;20091;-66
2022/07/25 06:52:10;;;;;;;12.07;8.82;;;;;;;;;;5010525;28;20121;-67
2022/07/25 06:54:36;;;;;;;12.98;8.70;;;;;;;;;;5010896;28;20072;-66
2022/07/25 06:57:02;;;;;;;11.48;9.48;;;;;;;;;;5010833;28;20540;-65
2022/07/25 06:59:28;;;;;;;11.35;8.82;;;;;;;;;;5000729;28;20397;-65
2022/07/25 07:01:54;;;;;;;14.60;9.50;;;;;;;;;;4991581;28;20043;-65
2022/07/25 07:04:20;;;;;;;12.38;8.32;;;;;;;;;;4992273;28;20129;-65
2022/07/25 07:06:47;;;;;;;11.20;9.13;;;;;;;;;;4994429;28;20469;-65
2022/07/25 07:09:13;;;;;;;12.85;9.95;;;;;;;;;;4994707;28;20042;-65
2022/07/25 07:11:39;;;;;;;11.93;10.25;;;;;;;;;;4994829;28;20050;-65
2022/07/25 07:14:05;;;;;;;11.50;9.52;;;;;;;;;;4994540;28;20057;-65
2022/07/25 07:16:31;;;;;;;14.18;10.52;;;;;;;;;;4994791;28;20074;-65
2022/07/25 07:18:57;;;;;;;12.95;10.05;;;;;;;;;;4994611;28;20422;-65
2022/07/25 07:21:24;;;;;;;11.75;9.95;;;;;;;;;;4994271;28;20059;-66
2022/07/25 07:23:50;;;;;;;12.43;10.38;;;;;;;;;;4994611;28;20053;-65
2022/07/25 07:26:16;;;;;;;15.32;11.05;;;;;;;;;;4994621;28;20050;-65
2022/07/25 07:28:42;;;;;;;15.07;11.45;;;;;;;;;;4994205;28;20035;-65
2022/07/25 07:31:08;;;;;;;13.43;11.73;;;;;;;;;;4994399;28;20087;-65
2022/07/25 07:33:34;;;;;;;14.90;11.35;;;;;;;;;;4994774;28;20046;-65
2022/07/25 07:36:00;;;;;;;17.73;11.50;;;;;;;;;;4993887;28;20366;-64
2022/07/25 07:38:27;;;;;;;14.43;10.60;;;;;;;;;;4994322;28;20042;-64
2022/07/25 07:40:53;;;;;;;17.00;12.13;;;;;;;;;;4975159;28;20038;-64
2022/07/25 07:43:19;;;;;;;18.05;11.77;;;;;;;;;;4990790;28;20046;-64
2022/07/25 07:45:46;;;;;;;18.15;11.77;;;;;;;;;;4993078;28;20046;-64
2022/07/25 07:48:12;;;;;;;15.35;11.60;;;;;;;;;;5011260;28;20133;-64
2022/07/25 07:50:38;;;;;;;15.40;11.98;;;;;;;;;;4998877;28;20042;-63
2022/07/25 07:53:05;;;;;;;17.50;12.02;;;;;;;;;;4992795;28;20449;-64
2022/07/25 07:55:54;;;;;;;15.38;11.38;;;;;;;;;;4993370;28;20078;-64
2022/07/25 07:58:20;;;;;;;20.25;13.18;;;;;;;;;;4993361;28;20117;-64
2022/07/25 08:00:48;;;;;;;16.05;11.95;;;;;;;;;;4994017;28;20038;-64
2022/07/25 08:03:18;;;;;;;17.35;11.93;;;;;;;;;;4993117;28;20112;-64
2022/07/25 08:05:44;;;;;;;14.73;10.48;;;;;;;;;;4993139;28;20050;-63
2022/07/25 08:08:12;;;;;;;13.00;11.00;;;;;;;;;;4993623;28;20441;-63
2022/07/25 08:10:40;;;;;;;14.73;10.18;;;;;;;;;;4993435;28;20045;-64
2022/07/25 08:13:19;;;;;;;18.38;10.50;;;;;;;;;;4993055;28;20047;-64
2022/07/25 08:15:46;;;;;;;12.82;10.35;;;;;;;;;;4991986;28;20056;-64
2022/07/25 08:18:13;;;;;;;14.63;9.85;;;;;;;;;;4993540;28;20105;-64
2022/07/25 08:20:39;;;;;;;13.07;9.98;;;;;;;;;;4993110;28;20046;-65
2022/07/25 08:23:05;;;;;;;18.85;10.00;;;;;;;;;;4992779;28;20465;-65
2022/07/25 08:25:31;;;;;;;13.80;8.98;;;;;;;;;;4993123;28;20042;-65
2022/07/25 08:27:58;;;;;;;13.70;8.73;;;;;;;;;;4993256;28;20042;-65
2022/07/25 08:30:24;;;;;;;13.35;8.95;;;;;;;;;;4993402;28;20488;-65
2022/07/25 08:32:51;;;;;;;11.07;8.55;;;;;;;;;;4992972;28;20046;-65
2022/07/25 08:35:18;;;;;;;12.90;9.50;;;;;;;;;;4991883;28;20074;-64
2022/07/25 08:37:45;;;;;;;10.57;8.10;;;;;;;;;;4993019;28;20038;-65
2022/07/25 08:40:12;;;;;;;10.35;8.40;;;;;;;;;;4993019;28;20077;-64
2022/07/25 08:42:38;;;;;;;8.80;7.53;;;;;;;;;;4998040;28;20042;-64
2022/07/25 08:45:05;;;;;;;13.77;8.25;;;;;;;;;;4973244;28;20047;-66
2022/07/25 08:47:32;;;;;;;12.80;8.13;;;;;;;;;;4985183;28;20050;-65
2022/07/25 08:49:58;;;;;;;8.93;7.30;;;;;;;;;;4992543;28;20052;-65
2022/07/25 08:52:24;;;;;;;11.38;7.80;;;;;;;;;;4992483;28;20081;-64
2022/07/25 08:54:50;;;;;;;10.82;8.10;;;;;;;;;;4992143;28;20034;-65
2022/07/25 08:57:17;;;;;;;11.95;6.90;;;;;;;;;;4992111;28;20078;-66
2022/07/25 08:59:43;;;;;;;11.73;6.50;;;;;;;;;;4992272;28;20528;-66
2022/07/25 09:02:13;;;;;;;9.98;7.00;;;;;;;;;;4992566;28;20089;-64
2022/07/25 09:04:39;;;;;;;8.40;6.55;;;;;;;;;;4992328;28;20073;-65
2022/07/25 09:07:06;;;;;;;8.35;6.47;;;;;;;;;;4991345;28;20550;-64
2022/07/25 09:09:37;;;;;;;9.60;6.90;;;;;;;;;;4992641;28;20046;-65
2022/07/25 09:12:04;;;;;;;8.65;7.78;;;;;;;;;;4991930;28;20125;-65
2022/07/25 09:14:30;;;;;;;11.50;7.82;;;;;;;;;;4991421;28;20073;-64
2022/07/25 09:16:56;;;;;;;9.07;8.18;;;;;;;;;;4991661;28;20070;-65
2022/07/25 09:19:24;;;;;;;11.48;8.73;;;;;;;;;;4991673;28;20069;-65
2022/07/25 09:22:03;;;;;;;6.93;5.78;;;;;;;;;;4991925;28;20056;-66
2022/07/25 09:24:31;;;;;;;5.18;3.92;;;;;;;;;;4991606;28;20074;-65
2022/07/25 09:26:58;;;;;;;5.78;3.53;;;;;;;;;;4996625;28;20048;-64
2022/07/25 09:29:24;;;;;;;4.18;2.90;;;;;;;;;;4992267;28;20038;-65
2022/07/25 09:31:51;;;;;;;2.83;2.35;;;;;;;;;;4991991;28;20496;-64
2022/07/25 09:34:29;;;;;;;4.32;2.63;;;;;;;;;;4991648;28;20093;-62
2022/07/25 09:36:55;;;;;;;4.40;3.25;;;;;;;;;;4991072;28;20101;-63
2022/07/25 09:39:32;;;;;;;6.60;3.58;;;;;;;;;;4991059;28;20069;-63
2022/07/25 09:41:58;;;;;;;4.18;2.70;;;;;;;;;;4991606;28;20089;-62
2022/07/25 09:44:29;;;;;;;4.40;2.40;;;;;;;;;;5009778;28;20037;-65
2022/07/25 09:46:57;;;;;;;3.47;2.20;;;;;;;;;;5010209;28;20539;-65
2022/07/25 09:49:24;;;;;;;4.00;2.40;;;;;;;;;;4991537;28;20057;-64
2022/07/25 09:51:50;;;;;;;2.55;2.13;;;;;;;;;;4991541;28;20698;-64
2022/07/25 09:54:17;;;;;;;4.55;2.40;;;;;;;;;;4991441;28;20074;-64
2022/07/25 09:56:43;;;;;;;2.97;2.45;;;;;;;;;;4991019;28;20046;-64
2022/07/25 09:59:09;;;;;;;4.65;2.50;;;;;;;;;;4990951;28;20603;-64
2022/07/25 10:01:37;;;;;;;2.78;2.40;;;;;;;;;;4991999;28;20059;-64
2022/07/25 10:04:09;;;;;;;4.13;2.08;;;;;;;;;;4973301;28;20454;-64
2022/07/25 10:06:35;;;;;;;;;;;;;;;;;;4992176;28;20043;-64
2022/07/25 10:09:01;;;;;;;4.65;2.00;;;;;;;;;;4991173;28;19921;-64
2022/07/25 10:11:29;;;;;;;3.25;2.00;;;;;;;;;;4991197;28;20046;-65
2022/07/25 10:13:55;;;;;;;3.90;2.47;;;;;;;;;;4991394;28;20125;-65
2022/07/25 10:16:23;;;;;;;3.03;2.13;;;;;;;;;;4991620;28;20053;-64
2022/07/25 10:18:54;;;;;;;4.65;2.05;;;;;;;;;;4990059;28;20087;-65
2022/07/25 10:21:20;;;;;;;4.05;1.38;;;;;;;;;;4993579;28;20374;-65
2022/07/25 10:23:57;;;;;;;4.15;1.73;;;;;;;;;;4990697;28;20102;-65
2022/07/25 10:26:24;;;;;;;4.43;1.40;;;;;;;;;;4989837;28;20049;-64
2022/07/25 10:28:51;;;;;;;2.42;1.50;;;;;;;;;;4990301;28;20042;-64
2022/07/25 10:31:24;;;;;;;2.03;1.40;;;;;;;;;;4990921;28;20792;-63
2022/07/25 10:33:51;;;;;;;3.67;1.45;;;;;;;;;;4991023;28;20043;-64
2022/07/25 10:36:18;;;;;;;1.95;1.55;;;;;;;;;;4991227;28;20046;-64
2022/07/25 10:38:45;;;;;;;2.03;0.98;;;;;;;;;;4990894;28;20046;-64
2022/07/25 10:41:15;;;;;;;4.45;1.00;;;;;;;;;;4989260;28;20397;-64
2022/07/25 10:43:43;;;;;;;2.72;0.93;;;;;;;;;;4993168;28;20175;-62
2022/07/25 10:46:13;;;;;;;3.85;0.90;;;;;;;;;;4994398;28;20382;-64
2022/07/25 10:48:40;;;;;;;2.00;0.85;;;;;;;;;;4994425;28;20098;-64
2022/07/25 10:51:07;;;;;;;2.97;1.15;;;;;;;;;;4995011;28;20046;-65
2022/07/25 10:53:33;;;;;;;4.68;1.52;;;;;;;;;;4994482;28;20400;-64
2022/07/25 10:56:29;;;;;;;4.35;1.17;;;;;;;;;;4994185;28;20050;-65
2022/07/25 10:58:56;;;;;;;5.40;1.60;;;;;;;;;;4995649;28;20574;-63
2022/07/25 11:01:24;;;;;;;7.72;2.00;;;;;;;;;;4996197;28;20485;-65
2022/07/25 11:03:51;;;;;;;6.10;1.92;;;;;;;;;;4994004;28;20129;-65
2022/07/25 11:06:28;;;;;;;5.00;2.00;;;;;;;;;;4995521;28;20486;-64
2022/07/25 11:08:56;;;;;;;3.38;2.05;;;;;;;;;;4994265;28;20058;-64
2022/07/25 11:11:32;;;;;;;10.20;3.03;;;;;;;;;;4994831;28;20042;-65
2022/07/25 11:13:59;;;;;;;6.90;2.50;;;;;;;;;;4994397;28;20070;-64
2022/07/25 11:16:26;;;;;;;10.02;2.75;;;;;;;;;;4995100;28;20077;-64
2022/07/25 11:18:55;;;;;;;11.18;3.58;;;;;;;;;;4992748;28;20046;-64
2022/07/25 11:21:21;;;;;;;8.60;3.08;;;;;;;;;;4993515;28;20495;-63
2022/07/25 11:23:53;;;;;;;6.78;3.13;;;;;;;;;;4986412;28;20125;-63
2022/07/25 11:26:19;;;;;;;7.47;2.90;;;;;;;;;;4991736;28;20089;-63
2022/07/25 11:28:47;;;;;;;5.60;2.50;;;;;;;;;;4993179;28;20034;-64
2022/07/25 11:31:14;;;;;;;6.95;2.72;;;;;;;;;;4995348;28;20062;-65
2022/07/25 11:33:41;;;;;;;7.78;2.50;;;;;;;;;;4996876;28;21311;-63
2022/07/25 11:36:08;;;;;;;5.53;2.60;;;;;;;;;;4995080;28;20440;-63
2022/07/25 11:38:34;;;;;;;7.97;2.22;;;;;;;;;;4993811;28;20042;-64
2022/07/25 11:41:00;;;;;;;11.48;2.72;;;;;;;;;;4994846;28;20046;-65
2022/07/25 11:43:27;;;;;;;8.10;2.47;;;;;;;;;;4975949;28;20034;-62
2022/07/25 11:45:56;;;;;;;9.85;2.83;;;;;;;;;;4991862;28;20161;-64
2022/07/25 11:48:30;;;;;;;7.68;2.40;;;;;;;;;;4992778;28;20042;-63
2022/07/25 11:50:56;;;;;;;4.30;2.50;;;;;;;;;;4992612;28;20042;-64
2022/07/25 11:53:22;;;;;;;8.82;2.67;;;;;;;;;;4995449;28;20362;-64
2022/07/25 11:55:48;;;;;;;6.95;2.80;;;;;;;;;;4993715;28;20034;-63
2022/07/25 11:58:14;;;;;;;5.63;2.92;;;;;;;;;;4994270;28;20401;-63
2022/07/25 12:00:41;;;;;;;6.80;2.78;;;;;;;;;;5011404;28;20088;-64
2022/07/25 12:03:09;;;;;;;7.28;3.20;;;;;;;;;;5011608;28;20045;-64
2022/07/25 12:05:35;;;;;;;7.72;3.10;;;;;;;;;;5011656;28;20038;-63
2022/07/25 12:08:11;;;;;;;6.97;2.65;;;;;;;;;;5006095;28;20050;-63
2022/07/25 12:10:38;;;;;;;6.05;2.67;;;;;;;;;;4992542;28;20043;-63
2022/07/25 12:13:05;;;;;;;11.50;2.50;;;;;;;;;;4993575;28;20042;-63
2022/07/25 12:15:37;;;;;;;5.25;2.40;;;;;;;;;;5002121;28;20052;-63
2022/07/25 12:18:04;;;;;;;7.28;2.22;;;;;;;;;;4982809;28;20388;-64
2022/07/25 12:20:32;;;;;;;6.47;2.22;;;;;;;;;;4993949;28;20081;-64
2022/07/25 12:22:59;;;;;;;6.15;1.80;;;;;;;;;;4991926;28;20034;-63
2022/07/25 12:25:27;;;;;;;4.65;1.45;;;;;;;;;;5006566;28;20045;-63
2022/07/25 12:27:53;;;;;;;5.90;1.48;;;;;;;;;;4999605;28;20038;-63
2022/07/25 12:30:19;;;;;;;9.23;1.85;;;;;;;;;;4992494;28;20053;-64
2022/07/25 12:32:46;;;;;;;5.88;1.80;;;;;;;;;;4992478;28;20034;-62
2022/07/25 12:35:13;;;;;;;5.45;1.90;;;;;;;;;;4992619;28;20050;-63
2022/07/25 12:37:40;;;;;;;4.43;1.63;;;;;;;;;;4992313;28;20527;-63
2022/07/25 12:40:06;;;;;;;5.72;1.83;;;;;;;;;;4992577;28;20129;-63
2022/07/25 12:42:32;;;;;;;4.75;1.40;;;;;;;;;;4991143;28;20050;-64
2022/07/25 12:44:58;;;;;;;3.70;1.70;;;;;;;;;;4992287;28;20085;-63
2022/07/25 12:47:25;;;;;;;4.88;1.45;;;;;;;;;;4990097;28;20513;-62
2022/07/25 12:49:51;;;;;;;4.65;1.30;;;;;;;;;;4990798;28;20189;-63
2022/07/25 12:52:17;;;;;;;4.15;1.50;;;;;;;;;;5001523;28;20405;-63
2022/07/25 12:54:43;;;;;;;4.05;1.60;;;;;;;;;;4991624;28;20366;-64
2022/07/25 12:57:12;;;;;;;4.85;1.60;;;;;;;;;;4991179;28;20053;-63
2022/07/25 12:59:38;;;;;;;6.50;1.83;;;;;;;;;;4993589;28;20060;-63
2022/07/25 13:02:04;;;;;;;6.82;2.08;;;;;;;;;;4990777;28;20493;-63
2022/07/25 13:04:30;;;;;;;4.93;1.77;;;;;;;;;;5010484;28;20136;-63
2022/07/25 13:06:57;;;;;;;6.70;1.92;;;;;;;;;;4999169;28;20046;-63
2022/07/25 13:09:24;;;;;;;6.53;2.00;;;;;;;;;;4990400;28;20540;-63
2022/07/25 13:11:50;;;;;;;7.05;1.65;;;;;;;;;;4991004;28;20045;-63
2022/07/25 13:14:17;;;;;;;6.53;1.75;;;;;;;;;;5001897;28;20466;-63
2022/07/25 13:16:43;;;;;;;5.88;2.00;;;;;;;;;;4991744;28;20050;-63
2022/07/25 13:19:09;;;;;;;4.90;1.65;;;;;;;;;;4991541;28;20053;-62
2022/07/25 13:21:36;;;;;;;7.40;1.83;;;;;;;;;;4991894;28;20153;-62
2022/07/25 13:24:02;;;;;;;9.20;2.50;;;;;;;;;;4986650;28;20046;-63
2022/07/25 13:26:28;;;;;;;3.80;1.58;;;;;;;;;;5008303;28;20046;-63
2022/07/25 13:28:54;;;;;;;4.13;1.55;;;;;;;;;;4991314;28;20042;-63
2022/07/25 13:31:21;;;;;;;4.70;1.88;;;;;;;;;;4991304;28;20575;-63
2022/07/25 13:33:48;;;;;;;8.35;1.70;;;;;;;;;;4996585;28;20086;-64
2022/07/25 13:36:14;;;;;;;5.03;2.03;;;;;;;;;;4991151;28;20472;-62
2022/07/25 13:38:42;;;;;;;6.35;2.00;;;;;;;;;;4990425;28;20465;-63
2022/07/25 13:41:08;;;;;;;8.18;1.45;;;;;;;;;;4991079;28;20046;-63
2022/07/25 13:43:35;;;;;;;6.00;1.85;;;;;;;;;;4968402;28;20065;-62
2022/07/25 13:46:01;;;;;;;7.30;1.80;;;;;;;;;;4990063;28;20042;-63
2022/07/25 13:48:27;;;;;;;5.03;1.85;;;;;;;;;;4989279;28;20053;-64
2022/07/25 13:50:54;;;;;;;8.02;1.85;;;;;;;;;;4988162;28;20676;-62
2022/07/25 13:53:20;;;;;;;5.38;2.10;;;;;;;;;;4990688;28;20046;-64
2022/07/25 13:55:46;;;;;;;7.25;1.88;;;;;;;;;;4991061;28;20038;-64
2022/07/25 13:58:12;;;;;;;10.82;2.15;;;;;;;;;;4990765;28;20048;-63
2022/07/25 14:00:38;;;;;;;6.43;2.08;;;;;;;;;;4993314;28;20188;-63
2022/07/25 14:03:05;;;;;;;10.38;2.38;;;;;;;;;;4978595;28;20443;-63
2022/07/25 14:05:31;;;;;;;9.13;2.20;;;;;;;;;;5000640;28;20092;-64
2022/07/25 14:07:59;;;;;;;6.20;2.15;;;;;;;;;;5010853;28;20045;-63
2022/07/25 14:10:25;;;;;;;7.68;2.17;;;;;;;;;;5010207;28;20042;-64
2022/07/25 14:12:51;;;;;;;5.88;1.90;;;;;;;;;;5010596;28;20099;-64
2022/07/25 14:15:17;;;;;;;12.52;3.22;;;;;;;;;;5013058;28;20065;-63
2022/07/25 14:17:44;;;;;;;7.95;2.20;;;;;;;;;;5009528;28;20046;-62
2022/07/25 14:20:10;;;;;;;9.82;2.50;;;;;;;;;;5014793;28;20049;-63
2022/07/25 14:22:38;;;;;;;6.85;2.13;;;;;;;;;;5014505;28;20080;-63
2022/07/25 14:25:04;;;;;;;9.93;2.67;;;;;;;;;;5012707;28;20077;-66
2022/07/25 14:27:30;;;;;;;11.13;2.88;;;;;;;;;;4994574;28;20470;-65
2022/07/25 14:29:56;;;;;;;8.02;2.38;;;;;;;;;;4994071;28;20525;-65